Time;durP1;ratioP1;P1;durP2;ratioP2;P2;SDS_P1;SDS_P2;PMS_P1;PMS_P2;Temp;Humidity;BMP_temperature;BMP_pressure;BME280_temperature;BME280_humidity;BME280_pressure;Samples;Min_cycle;Max_cycle;Signal;HPM_P1;HPM_P2
2022/12/03 00:01:11;;;;;;;;;12.50;11.00;;;;;20.66;32.91;101199.31;5037850;28;45329;-41
2022/12/03 00:03:36;;;;;;;;;13.25;8.25;;;;;20.65;33.16;101195.84;5038049;28;45415;-43
2022/12/03 00:06:02;;;;;;;;;10.33;8.67;;;;;20.64;32.79;101195.91;5038524;28;45562;-43
2022/12/03 00:08:27;;;;;;;;;13.00;10.50;;;;;20.62;32.73;101196.00;5038034;28;46003;-43
2022/12/03 00:10:52;;;;;;;;;9.25;9.25;;;;;20.61;33.35;101194.28;5037901;28;45417;-42
2022/12/03 00:13:18;;;;;;;;;12.75;10.25;;;;;20.61;33.13;101190.81;5038046;28;45483;-44
2022/12/03 00:15:43;;;;;;;;;13.50;11.25;;;;;20.58;32.68;101188.31;5038025;28;45630;-41
2022/12/03 00:18:08;;;;;;;;;10.00;10.00;;;;;20.57;33.24;101184.81;5037296;28;57321;-42
2022/12/03 00:20:34;;;;;;;;;16.67;11.00;;;;;20.55;32.79;101184.91;5037023;28;58037;-51
2022/12/03 00:22:59;;;;;;;;;10.50;10.25;;;;;20.55;32.97;101184.06;5037979;28;45275;-43
2022/12/03 00:25:24;;;;;;;;;14.25;9.50;;;;;20.52;32.78;101177.16;5036985;28;45590;-42
2022/12/03 00:27:49;;;;;;;;;14.00;11.67;;;;;20.52;33.29;101184.22;5036744;28;59328;-42
2022/12/03 00:30:15;;;;;;;;;12.25;12.25;;;;;20.50;33.35;101175.53;5037268;28;45365;-44
2022/12/03 00:32:40;;;;;;;;;10.50;10.25;;;;;20.48;32.88;101178.25;5037565;28;45259;-44
2022/12/03 00:35:06;;;;;;;;;15.50;11.75;;;;;20.47;32.88;101173.03;5037739;28;45358;-43
2022/12/03 00:37:33;;;;;;;;;10.75;10.00;;;;;20.46;32.82;101182.75;5037802;28;45898;-45
2022/12/03 00:39:59;;;;;;;;;17.25;11.75;;;;;20.44;33.31;101176.69;5053251;28;45630;-50
2022/12/03 00:42:25;;;;;;;;;12.50;10.00;;;;;20.42;32.85;101172.44;5036166;28;45801;-43
2022/12/03 00:44:50;;;;;;;;;13.75;12.50;;;;;20.40;33.13;101177.75;5037328;28;45319;-43
2022/12/03 00:47:15;;;;;;;;;15.25;12.50;;;;;20.39;33.12;101170.81;5037014;28;45424;-44
2022/12/03 00:49:41;;;;;;;;;14.50;12.75;;;;;20.38;33.43;101169.94;5037098;28;45363;-48
2022/12/03 00:52:06;;;;;;;;;16.00;12.75;;;;;20.36;33.13;101170.97;5037278;28;45362;-45
2022/12/03 00:54:31;;;;;;;;;14.25;13.50;;;;;20.34;32.93;101176.28;5037665;28;45440;-44
2022/12/03 00:56:57;;;;;;;;;17.75;13.50;;;;;20.33;32.96;101171.97;5036914;28;45354;-49
2022/12/03 00:59:22;;;;;;;;;14.50;13.25;;;;;20.31;33.45;101172.94;5037013;28;45334;-45
2022/12/03 01:01:47;;;;;;;;;13.75;13.75;;;;;20.28;33.43;101171.34;5037142;28;45413;-43
2022/12/03 01:04:13;;;;;;;;;16.25;13.75;;;;;20.27;33.41;101163.53;5037247;28;45381;-45
2022/12/03 01:06:38;;;;;;;;;16.50;14.50;;;;;20.26;33.19;101162.66;5036646;28;46412;-45
2022/12/03 01:09:03;;;;;;;;;13.50;12.00;;;;;20.27;33.63;101176.69;5037150;28;45435;-43
2022/12/03 01:11:37;;;;;;;;;19.00;13.25;;;;;20.22;33.03;101163.75;5035527;28;45410;-46
2022/12/03 01:14:08;;;;;;;;;15.00;13.50;;;;;20.22;33.50;101169.00;5037440;28;45445;-44
2022/12/03 01:16:34;;;;;;;;;19.50;12.00;;;;;20.23;32.93;101175.94;5036980;28;46227;-46
2022/12/03 01:18:59;;;;;;;;;14.50;13.50;;;;;20.19;33.37;101167.34;5036682;28;45329;-44
2022/12/03 01:21:24;;;;;;;;;17.50;14.25;;;;;20.19;33.45;101170.00;5036756;28;45783;-41
2022/12/03 01:23:50;;;;;;;;;16.67;12.00;;;;;20.19;33.42;101172.63;5034983;28;50526;-46
2022/12/03 01:26:15;;;;;;;;;18.00;11.00;;;;;20.18;33.14;101172.72;5051740;28;56194;-44
2022/12/03 01:28:40;;;;;;;;;17.25;14.00;;;;;20.17;33.32;101171.00;5036530;28;45440;-44
2022/12/03 01:33:50;;;;;;;;;17.50;13.75;;;;;20.16;33.40;101166.66;5036774;28;45436;-45
2022/12/03 01:36:15;;;;;;;;;16.00;14.33;;;;;20.13;33.51;101162.41;5035236;28;50195;-45
2022/12/03 01:38:41;;;;;;;;;15.00;13.25;;;;;20.14;33.62;101157.97;5036332;28;45406;-48
2022/12/03 01:41:06;;;;;;;;;14.25;14.25;;;;;20.12;33.22;101159.88;5036953;28;45453;-49
2022/12/03 01:43:31;;;;;;;;;14.00;12.50;;;;;20.11;33.06;101160.78;5036585;28;45444;-44
2022/12/03 01:45:57;;;;;;;;;13.25;12.50;;;;;20.11;33.54;101161.63;5036266;28;46559;-45
2022/12/03 01:48:22;;;;;;;;;11.50;11.50;;;;;20.11;33.71;101171.31;5036054;28;50083;-47
2022/12/03 01:50:47;;;;;;;;;17.00;16.50;;;;;20.10;33.70;101164.34;5036566;28;45448;-44
2022/12/03 01:53:14;;;;;;;;;15.50;12.50;;;;;20.09;33.58;101163.47;5036479;28;45406;-46
2022/12/03 01:55:42;;;;;;;;;17.00;14.00;;;;;20.08;33.16;101159.13;5036066;28;46650;-44
2022/12/03 01:58:12;;;;;;;;;19.25;14.00;;;;;20.07;33.34;101171.44;5036523;28;45811;-43
2022/12/03 02:00:38;;;;;;;;;15.75;13.25;;;;;20.06;33.12;101175.00;5036690;28;45340;-46
2022/12/03 02:03:14;;;;;;;;;17.75;14.50;;;;;20.07;33.16;101174.09;5036427;28;45389;-46
2022/12/03 02:05:39;;;;;;;;;13.50;13.50;;;;;20.05;33.55;101173.28;5036013;28;45301;-42
2022/12/03 02:08:31;;;;;;;;;18.00;13.75;;;;;20.04;33.38;101170.75;5036157;28;45269;-42
2022/12/03 02:11:24;;;;;;;;;16.75;14.50;;;;;20.04;33.42;101171.59;5036337;28;45532;-43
2022/12/03 02:13:53;;;;;;;;;17.50;15.25;;;;;20.03;33.64;101169.03;5036350;28;45867;-44
2022/12/03 02:16:19;;;;;;;;;15.50;14.00;;;;;20.01;33.43;101170.88;5051543;28;48599;-43
2022/12/03 02:18:45;;;;;;;;;17.50;16.50;;;;;20.00;33.15;101170.06;5036061;28;45341;-44
2022/12/03 02:21:27;;;;;;;;;18.50;11.25;;;;;19.99;33.75;101173.59;5036079;28;45368;-44
2022/12/03 02:24:04;;;;;;;;;16.00;14.50;;;;;19.98;33.57;101171.91;5034614;28;45454;-45
2022/12/03 02:26:30;;;;;;;;;19.50;15.25;;;;;19.98;33.64;101177.16;5035780;28;46563;-44
2022/12/03 02:28:56;;;;;;;;;15.75;14.00;;;;;19.97;33.24;101172.81;5035909;28;45446;-44
2022/12/03 02:31:22;;;;;;;;;17.00;15.00;;;;;19.96;33.12;101167.59;5035836;28;45254;-42
2022/12/03 02:33:48;;;;;;;;;14.25;13.75;;;;;19.96;33.76;101170.25;5051629;28;45572;-44
2022/12/03 02:36:13;;;;;;;;;16.00;14.00;;;;;19.95;33.33;101166.78;5051170;28;45448;-43
2022/12/03 02:38:41;;;;;;;;;20.50;14.50;;;;;19.93;33.29;101164.22;5035937;28;45452;-44
2022/12/03 02:41:09;;;;;;;;;16.75;15.50;;;;;19.93;33.24;101158.09;5036074;28;45373;-41
2022/12/03 02:43:35;;;;;;;;;15.25;13.50;;;;;19.90;33.34;101152.97;5035833;28;45528;-42
2022/12/03 02:46:03;;;;;;;;;14.50;13.50;;;;;19.91;33.18;101159.94;5035520;28;47252;-42
2022/12/03 02:48:35;;;;;;;;;14.00;13.25;;;;;19.90;33.10;101159.09;5037678;28;45242;-43
2022/12/03 02:51:04;;;;;;;;;15.25;14.50;;;;;19.89;33.19;101153.94;5039186;28;45401;-43
2022/12/03 02:53:36;;;;;;;;;16.25;14.00;;;;;19.88;33.40;101150.44;5039106;28;45576;-42
2022/12/03 02:56:02;;;;;;;;;17.50;15.50;;;;;19.88;33.19;101154.84;5038969;28;45580;-43
2022/12/03 02:58:31;;;;;;;;;18.75;14.75;;;;;19.87;33.72;101158.41;5038893;28;45867;-41
2022/12/03 03:00:58;;;;;;;;;17.00;14.00;;;;;19.84;33.70;101153.25;5038999;28;45778;-44
2022/12/03 03:03:27;;;;;;;;;14.50;14.00;;;;;19.84;33.16;101154.13;5039034;28;45259;-47
2022/12/03 03:05:55;;;;;;;;;17.50;14.00;;;;;19.83;33.24;101146.28;5037492;28;48012;-45
2022/12/03 03:08:21;;;;;;;;;16.50;16.00;;;;;19.82;33.55;101153.31;5038356;28;45272;-42
2022/12/03 03:10:48;;;;;;;;;18.25;13.50;;;;;19.80;33.88;101151.66;5038855;28;45419;-43
2022/12/03 03:13:16;;;;;;;;;17.50;14.75;;;;;19.81;33.46;101158.63;5038959;28;45410;-41
2022/12/03 03:15:42;;;;;;;;;17.25;16.25;;;;;19.78;33.32;101155.25;5038827;28;45418;-42
2022/12/03 03:18:09;;;;;;;;;15.50;11.75;;;;;19.78;33.18;101157.88;5038683;28;45381;-44
2022/12/03 03:20:35;;;;;;;;;17.75;16.75;;;;;19.76;33.53;101150.97;5038713;28;45433;-43
2022/12/03 03:23:21;;;;;;;;;15.25;14.00;;;;;19.75;33.23;101146.63;5038799;28;45501;-45
2022/12/03 03:25:54;;;;;;;;;16.50;15.50;;;;;19.74;33.67;101151.06;5038371;28;48340;-44
2022/12/03 03:28:20;;;;;;;;;16.25;14.50;;;;;19.75;33.73;101155.38;5038501;28;45892;-42
2022/12/03 03:30:45;;;;;;;;;18.75;14.50;;;;;19.74;33.26;101158.94;5038550;28;45449;-43
2022/12/03 03:33:13;;;;;;;;;17.00;13.00;;;;;19.73;33.85;101151.97;5038831;28;45314;-42
2022/12/03 03:35:39;;;;;;;;;19.75;17.00;;;;;19.73;33.70;101153.75;5038162;28;46280;-43
2022/12/03 03:38:06;;;;;;;;;15.00;14.25;;;;;19.71;33.68;101155.59;5038419;28;45354;-42
2022/12/03 03:40:31;;;;;;;;;18.75;15.50;;;;;19.71;33.38;101159.06;5038362;28;45425;-43
2022/12/03 03:42:57;;;;;;;;;13.50;12.50;;;;;19.70;33.38;101161.78;5038425;28;45272;-43
2022/12/03 03:45:23;;;;;;;;;17.25;12.75;;;;;19.68;33.80;101153.94;5037988;28;46614;-44
2022/12/03 03:47:48;;;;;;;;;15.25;14.00;;;;;19.67;33.37;101149.66;5038041;28;45216;-46
2022/12/03 03:50:15;;;;;;;;;16.50;15.00;;;;;19.67;33.42;101146.16;5037186;28;45350;-46
2022/12/03 03:52:42;;;;;;;;;18.25;14.25;;;;;19.67;33.63;101152.28;5038656;28;45355;-43
2022/12/03 03:55:09;;;;;;;;;15.75;15.75;;;;;19.67;33.80;101156.66;5037976;28;46855;-45
2022/12/03 03:57:35;;;;;;;;;13.50;12.50;;;;;19.67;33.87;101162.78;5038116;28;45248;-44
2022/12/03 04:00:01;;;;;;;;;15.00;15.00;;;;;19.63;33.49;101151.53;5037134;28;45446;-44
2022/12/03 04:02:27;;;;;;;;;20.00;17.75;;;;;19.64;33.81;101157.66;5038187;28;45274;-45
2022/12/03 04:04:53;;;;;;;;;13.25;13.25;;;;;19.64;33.51;101157.66;5037687;28;46067;-44
2022/12/03 04:07:18;;;;;;;;;18.50;16.25;;;;;19.67;33.50;101156.66;5037605;28;45382;-43
2022/12/03 04:09:44;;;;;;;;;16.75;15.00;;;;;19.68;33.60;101161.00;5038197;28;45373;-45
2022/12/03 04:14:56;;;;;;;;;19.25;14.00;;;;;19.73;34.24;101151.13;5037651;28;45415;-43
2022/12/03 04:17:21;;;;;;;;;17.75;16.75;;;;;19.80;34.16;101151.66;5037502;28;45418;-44
2022/12/03 04:19:47;;;;;;;;;16.75;16.00;;;;;19.84;33.84;101147.97;5037671;28;45372;-44
2022/12/03 04:28:47;;;;;;;;;18.00;16.25;;;;;19.92;33.72;101145.88;5037384;28;45773;-45
2022/12/03 04:30:25;;;;;;;;;19.75;15.25;;;;;20.01;33.69;101144.59;5037614;28;45373;-45
2022/12/03 04:35:43;;;;;;;;;15.75;13.25;;;;;20.06;34.05;101138.16;5037249;28;45712;-43
2022/12/03 04:38:10;;;;;;;;;16.75;13.25;;;;;20.10;33.92;101136.22;5037395;28;45430;-42
2022/12/03 04:43:20;;;;;;;;;16.50;15.50;;;;;20.16;33.80;101127.19;5037352;28;45431;-44
2022/12/03 04:45:48;;;;;;;;;20.50;15.25;;;;;20.17;33.34;101129.75;5053059;28;46656;-43
2022/12/03 04:48:13;;;;;;;;;17.50;13.75;;;;;20.21;33.19;101135.72;5037382;28;45310;-41
2022/12/03 04:50:39;;;;;;;;;19.50;14.50;;;;;20.22;33.19;101129.53;5037339;28;45366;-45
2022/12/03 04:53:04;;;;;;;;;17.25;13.75;;;;;20.25;33.76;101139.88;5037411;28;45264;-41
2022/12/03 04:55:29;;;;;;;;;20.25;16.00;;;;;20.24;33.37;101133.78;5036897;28;46043;-43
2022/12/03 04:57:55;;;;;;;;;15.50;13.25;;;;;20.26;33.29;101132.84;5037134;28;45247;-41
2022/12/03 05:00:20;;;;;;;;;16.50;13.25;;;;;20.27;33.28;101134.56;5037248;28;45449;-42
2022/12/03 05:02:45;;;;;;;;;11.75;10.75;;;;;20.29;33.30;101128.28;5037574;28;45233;-41
2022/12/03 05:05:11;;;;;;;;;13.00;8.50;;;;;20.29;33.30;101130.94;5036904;28;45251;-46
2022/12/03 05:07:36;;;;;;;;;15.00;15.00;;;;;20.30;33.46;101129.13;5035367;28;48369;-48
2022/12/03 05:10:02;;;;;;;;;15.00;13.50;;;;;20.31;33.06;101125.56;5036690;28;46873;-44
2022/12/03 05:12:28;;;;;;;;;14.25;12.75;;;;;20.30;33.02;101124.72;5037114;28;45348;-42
2022/12/03 05:14:53;;;;;;;;;15.67;14.67;;;;;20.31;33.47;101126.44;5036613;28;51496;-43
2022/12/03 05:17:18;;;;;;;;;13.75;12.50;;;;;20.32;33.39;101124.66;5036944;28;45386;-43
2022/12/03 05:22:27;;;;;;;;;14.00;14.00;;;;;20.32;33.45;101124.66;5036883;28;45184;-43
2022/12/03 05:24:53;;;;;;;;;15.67;14.67;;;;;20.32;32.70;101125.50;5036153;28;54383;-43
2022/12/03 05:27:20;;;;;;;;;17.33;15.33;;;;;20.30;32.93;101129.13;5052140;28;57500;-45
2022/12/03 05:29:45;;;;;;;;;19.00;15.00;;;;;20.30;33.07;101134.41;5036990;28;45349;-44
2022/12/03 05:32:11;;;;;;;;;16.00;15.25;;;;;20.27;33.19;101130.16;5036893;28;45298;-41
2022/12/03 05:34:36;;;;;;;;;30.50;26.00;;;;;20.26;33.31;101133.69;5036327;28;45462;-44
2022/12/03 05:37:02;;;;;;;;;940.25;785.50;;;;;20.24;33.40;101133.78;5034951;28;60971;-43
2022/12/03 05:39:27;;;;;;;;;263.00;233.50;;;;;20.22;33.18;101133.00;5036400;28;45323;-43
2022/12/03 05:44:36;;;;;;;;;288.00;254.75;;;;;20.19;32.78;101119.16;5035865;28;45821;-44
2022/12/03 05:47:01;;;;;;;;;320.25;290.50;;;;;20.17;33.25;101118.38;5035510;28;63434;-44
2022/12/03 05:49:26;;;;;;;;;344.25;325.50;;;;;20.16;32.92;101117.53;5035692;28;51095;-44
2022/12/03 05:51:52;;;;;;;;;453.50;399.00;;;;;20.16;33.28;101121.91;5035606;28;53000;-42
2022/12/03 05:54:17;;;;;;;;;471.00;406.00;;;;;20.15;33.39;101125.47;5035979;28;46173;-43
2022/12/03 05:56:42;;;;;;;;;393.25;362.00;;;;;20.13;33.30;101116.81;5035124;28;58268;-47
2022/12/03 05:59:08;;;;;;;;;482.00;424.20;;;;;20.13;33.01;101124.69;5035793;28;45335;-44
2022/12/03 06:01:33;;;;;;;;;422.20;382.80;;;;;20.13;33.17;101122.06;5035993;28;45440;-42
2022/12/03 06:03:58;;;;;;;;;401.50;376.25;;;;;20.11;32.75;101123.94;5035575;28;45409;-45
2022/12/03 06:06:23;;;;;;;;;513.00;435.00;;;;;20.08;32.90;101124.94;5035325;28;46492;-47
2022/12/03 06:08:49;;;;;;;;;568.25;503.50;;;;;20.05;32.87;101120.66;5035614;28;48045;-45
2022/12/03 06:11:14;;;;;;;;;586.25;512.00;;;;;20.05;33.25;101120.66;5035864;28;45568;-46
2022/12/03 06:13:39;;;;;;;;;575.60;520.20;;;;;20.04;32.74;101118.97;5035158;28;45331;-45
2022/12/03 06:16:05;;;;;;;;;563.20;497.40;;;;;20.04;32.65;101118.13;5035307;28;45458;-42
2022/12/03 06:18:30;;;;;;;;;569.40;510.00;;;;;20.03;32.91;101116.41;5035589;28;45278;-44
2022/12/03 06:20:55;;;;;;;;;558.50;503.25;;;;;20.02;33.20;101120.81;5035308;28;45380;-47
2022/12/03 06:23:21;;;;;;;;;547.25;499.25;;;;;20.01;32.82;101113.00;5037023;28;59676;-43
2022/12/03 06:25:46;;;;;;;;;541.25;481.25;;;;;20.00;32.95;101112.16;5038850;28;45210;-43
2022/12/03 06:28:12;;;;;;;;;545.60;473.40;;;;;20.01;33.27;101113.00;5037537;28;45311;-44
2022/12/03 06:30:37;;;;;;;;;497.60;447.20;;;;;19.99;33.02;101122.75;5039067;28;45251;-44
2022/12/03 06:33:02;;;;;;;;;520.80;455.60;;;;;19.99;32.64;101118.34;5038571;28;46196;-45
2022/12/03 06:35:28;;;;;;;;;492.20;456.00;;;;;19.98;33.07;101114.00;5038698;28;45274;-46
2022/12/03 06:37:53;;;;;;;;;480.60;432.40;;;;;19.97;33.10;101117.56;5039114;28;45350;-45
2022/12/03 06:40:18;;;;;;;;;511.80;440.20;;;;;19.93;32.73;101113.38;5038588;28;45537;-45
2022/12/03 06:42:44;;;;;;;;;470.60;424.40;;;;;19.92;32.54;101116.94;5038506;28;46941;-46
2022/12/03 06:45:10;;;;;;;;;468.75;416.00;;;;;19.91;32.72;101109.97;5038513;28;45280;-48
2022/12/03 06:47:35;;;;;;;;;455.40;406.00;;;;;19.90;33.29;101122.28;5037449;28;45285;-43
2022/12/03 06:50:00;;;;;;;;;434.00;389.00;;;;;19.88;32.95;101123.28;5038681;28;45475;-45
2022/12/03 06:52:26;;;;;;;;;415.25;377.50;;;;;19.87;32.65;101117.16;5037584;28;66719;-45
2022/12/03 06:54:51;;;;;;;;;429.20;385.80;;;;;19.86;32.94;101119.88;5038886;28;45296;-45
2022/12/03 06:57:18;;;;;;;;;435.40;384.60;;;;;19.84;33.02;101122.56;5038537;28;45293;-46
2022/12/03 06:59:44;;;;;;;;;389.00;351.00;;;;;19.84;32.64;101126.94;5038733;28;45306;-43
2022/12/03 07:02:11;;;;;;;;;402.00;360.50;;;;;19.81;32.95;101121.81;5038401;28;45460;-45
2022/12/03 07:04:36;;;;;;;;;388.00;352.40;;;;;19.81;32.77;101124.44;5038102;28;45807;-47
2022/12/03 07:07:01;;;;;;;;;375.00;339.67;;;;;19.78;32.75;101126.31;5053893;28;45447;-44
2022/12/03 07:09:27;;;;;;;;;374.33;331.33;;;;;19.78;32.65;101121.06;5038379;28;45354;-45
2022/12/03 07:11:52;;;;;;;;;345.75;311.75;;;;;19.77;33.22;101123.75;5038556;28;46481;-44
2022/12/03 07:14:17;;;;;;;;;347.33;312.67;;;;;19.75;33.08;101123.84;5038557;28;45333;-46
2022/12/03 07:16:43;;;;;;;;;337.67;296.00;;;;;19.74;32.92;101123.88;5038491;28;45412;-45
2022/12/03 07:19:09;;;;;;;;;343.75;308.25;;;;;19.73;33.05;101125.69;5038808;28;45571;-43
2022/12/03 07:21:34;;;;;;;;;332.00;294.80;;;;;19.72;32.96;101117.88;5038281;28;45438;-44
2022/12/03 07:24:00;;;;;;;;;331.00;293.67;;;;;19.70;33.15;101122.34;5038060;28;45406;-48
2022/12/03 07:26:25;;;;;;;;;311.75;288.75;;;;;19.69;33.27;101116.22;5038686;28;45375;-43
2022/12/03 07:28:50;;;;;;;;;314.50;273.00;;;;;19.68;33.25;101122.41;5038526;28;45251;-44
2022/12/03 07:31:18;;;;;;;;;311.33;271.00;;;;;19.68;32.96;101127.66;5038155;28;46042;-45
2022/12/03 07:33:43;;;;;;;;;301.00;254.75;;;;;19.67;32.96;101119.84;5037257;28;45508;-43
2022/12/03 07:36:09;;;;;;;;;275.67;249.67;;;;;19.66;33.29;101132.16;5038015;28;45402;-46
2022/12/03 07:38:34;;;;;;;;;278.00;238.25;;;;;19.67;32.82;101138.25;5038423;28;45302;-46
2022/12/03 07:40:59;;;;;;;;;258.33;231.67;;;;;19.63;33.01;101133.13;5038135;28;45885;-45
2022/12/03 07:43:25;;;;;;;;;253.33;223.67;;;;;19.63;32.82;101130.50;5038452;28;45268;-43
2022/12/03 07:45:51;;;;;;;;;231.50;206.00;;;;;19.63;32.84;101135.75;5038085;28;45338;-42
2022/12/03 07:48:18;;;;;;;;;229.00;206.67;;;;;19.61;33.20;101136.75;5038420;28;45548;-43
2022/12/03 07:50:44;;;;;;;;;232.75;207.25;;;;;19.61;33.30;101128.88;5037943;28;45488;-46
2022/12/03 07:53:09;;;;;;;;;232.67;203.00;;;;;19.60;33.11;101137.69;5038002;28;45306;-46
2022/12/03 07:55:34;;;;;;;;;199.33;184.00;;;;;19.58;33.13;101137.78;5037562;28;52070;-42
2022/12/03 07:58:00;;;;;;;;;200.67;176.33;;;;;19.57;33.02;101132.56;5038210;28;45369;-45
2022/12/03 08:00:25;;;;;;;;;188.33;167.33;;;;;19.56;32.99;101134.34;5038191;28;45987;-42
2022/12/03 08:02:50;;;;;;;;;183.33;165.33;;;;;19.56;33.21;101136.97;5037704;28;45428;-43
2022/12/03 08:05:16;;;;;;;;;178.67;159.33;;;;;19.55;33.01;101139.69;5037643;28;45488;-46
2022/12/03 08:07:41;;;;;;;;;179.75;157.25;;;;;19.54;32.99;101141.44;5036088;28;45334;-44
2022/12/03 08:10:07;;;;;;;;;182.00;158.00;;;;;19.53;33.17;101137.13;5037434;28;49284;-43
2022/12/03 08:12:39;;;;;;;;;154.75;142.75;;;;;19.53;33.10;101131.84;5053166;28;45459;-44
2022/12/03 08:15:26;;;;;;;;;167.75;146.25;;;;;19.54;33.35;101135.34;5037630;28;45491;-43
2022/12/03 08:17:59;;;;;;;;;145.50;132.50;;;;;19.53;33.27;101128.38;5037915;28;45414;-42
2022/12/03 08:20:28;;;;;;;;;140.25;126.00;;;;;19.55;33.33;101134.44;5037411;28;46074;-41
2022/12/03 08:22:54;;;;;;;;;135.25;122.25;;;;;19.54;33.45;101135.34;5037434;28;45543;-42
2022/12/03 08:25:23;;;;;;;;;122.00;112.00;;;;;19.54;33.38;101132.72;5037448;28;45373;-46
2022/12/03 08:27:50;;;;;;;;;128.00;117.00;;;;;19.54;32.95;101135.34;5037751;28;45394;-43
2022/12/03 08:30:17;;;;;;;;;122.25;112.50;;;;;19.53;33.26;101129.22;5037163;28;45496;-43
2022/12/03 08:32:43;;;;;;;;;113.00;99.75;;;;;19.52;32.99;101124.06;5037268;28;45409;-44
2022/12/03 08:35:21;;;;;;;;;116.75;105.75;;;;;19.50;32.83;101124.13;5036140;28;45337;-44
2022/12/03 08:38:10;;;;;;;;;108.25;98.75;;;;;19.49;33.16;101126.81;5037297;28;45453;-44
2022/12/03 08:40:44;;;;;;;;;111.50;93.75;;;;;19.48;33.01;101125.97;5052670;28;46235;-48
2022/12/03 08:43:25;;;;;;;;;101.75;91.50;;;;;19.45;33.47;101116.47;5037224;28;45386;-41
2022/12/03 08:45:55;;;;;;;;;96.00;85.75;;;;;19.48;33.62;101123.34;5036661;28;45231;-42
2022/12/03 08:48:27;;;;;;;;;96.25;87.75;;;;;19.47;33.37;101124.28;5037298;28;45302;-42
2022/12/03 08:50:55;;;;;;;;;88.50;80.00;;;;;19.50;33.63;101123.25;5036962;28;46715;-41
2022/12/03 08:53:26;;;;;;;;;86.25;83.50;;;;;19.52;33.68;101132.78;5036818;28;45498;-41
2022/12/03 08:55:52;;;;;;;;;84.00;76.75;;;;;19.56;33.85;101136.16;5037138;28;45266;-42
2022/12/03 08:58:33;;;;;;;;;87.00;75.50;;;;;19.61;33.73;101134.13;5035895;28;45370;-42
2022/12/03 09:01:11;;;;;;;;;80.75;71.00;;;;;19.66;33.83;101128.66;5036741;28;46429;-40
2022/12/03 09:03:38;;;;;;;;;81.50;67.00;;;;;19.69;33.65;101126.72;5036674;28;45579;-42
2022/12/03 09:06:04;;;;;;;;;78.50;65.50;;;;;19.74;33.50;101122.13;5037077;28;45310;-44
2022/12/03 09:08:29;;;;;;;;;78.75;65.25;;;;;19.78;33.35;101131.59;5036804;28;45605;-40
2022/12/03 09:10:55;;;;;;;;;79.25;62.75;;;;;19.82;33.82;101132.28;5036629;28;45448;-41
2022/12/03 09:13:21;;;;;;;;;78.75;62.00;;;;;19.88;33.50;101128.53;5036453;28;45406;-42
2022/12/03 09:15:48;;;;;;;;;75.50;60.50;;;;;19.92;33.46;101130.94;5036708;28;45418;-40
2022/12/03 09:18:13;;;;;;;;;73.00;58.25;;;;;19.96;33.63;101126.38;5036914;28;45310;-42
2022/12/03 09:20:39;;;;;;;;;70.67;55.67;;;;;19.97;33.81;101127.22;5035951;28;61098;-42
2022/12/03 09:23:05;;;;;;;;;66.25;53.75;;;;;20.01;33.73;101124.38;5036838;28;45436;-44
2022/12/03 09:25:45;;;;;;;;;68.50;52.25;;;;;20.05;33.74;101128.56;5013759;28;45522;-40
2022/12/03 09:28:10;;;;;;;;;66.67;52.00;;;;;20.10;33.52;101127.50;5036815;28;45553;-42
2022/12/03 09:30:36;;;;;;;;;63.67;50.33;;;;;20.11;33.55;101135.31;5036471;28;45314;-41
2022/12/03 09:33:01;;;;;;;;;64.67;51.33;;;;;20.14;33.49;101126.41;5036682;28;45382;-44
2022/12/03 09:35:27;;;;;;;;;61.00;47.67;;;;;20.15;33.25;101136.00;5036630;28;45483;-42
2022/12/03 09:37:52;;;;;;;;;62.25;47.50;;;;;20.17;33.16;101131.53;5036698;28;45547;-46
2022/12/03 09:40:18;;;;;;;;;61.50;46.50;;;;;20.18;33.15;101136.69;5051789;28;46207;-43
2022/12/03 09:42:44;;;;;;;;;48.75;41.25;;;;;20.20;33.48;101134.03;5036343;28;45460;-41
2022/12/03 09:45:11;;;;;;;;;52.50;40.75;;;;;20.21;33.37;101133.94;5035036;28;45382;-43
2022/12/03 09:47:43;;;;;;;;;56.00;44.00;;;;;20.22;33.54;101129.53;5036612;28;45290;-46
2022/12/03 09:50:19;;;;;;;;;52.25;42.75;;;;;20.27;33.10;101130.16;5034945;28;48406;-41
2022/12/03 09:52:45;;;;;;;;;49.25;40.25;;;;;20.28;33.51;101126.59;5036226;28;45764;-45
2022/12/03 09:55:17;;;;;;;;;50.50;39.75;;;;;20.28;33.01;101126.59;5036331;28;45381;-46
2022/12/03 09:57:42;;;;;;;;;50.00;41.75;;;;;20.28;33.05;101126.59;5035565;28;45408;-45
2022/12/03 10:00:18;;;;;;;;;51.00;40.25;;;;;20.30;32.99;101116.84;5036135;28;45826;-45
2022/12/03 10:02:44;;;;;;;;;53.00;39.50;;;;;20.31;33.49;101117.69;5034816;28;45963;-46
2022/12/03 10:05:10;;;;;;;;;48.00;36.75;;;;;20.32;33.42;101107.09;5036395;28;45302;-42
2022/12/03 10:07:36;;;;;;;;;43.75;37.00;;;;;20.33;33.54;101108.78;5036481;28;45262;-42
2022/12/03 10:10:01;;;;;;;;;25.75;23.00;;;;;20.32;32.53;101106.22;5035949;28;46601;-41
2022/12/03 10:12:26;;;;;;;;;34.50;31.50;;;;;20.31;33.01;101105.38;5036152;28;45225;-42
2022/12/03 10:14:52;;;;;;;;;37.25;30.00;;;;;20.29;33.21;101106.38;5036303;28;45220;-41
2022/12/03 10:17:18;;;;;;;;;37.75;30.50;;;;;20.27;32.95;101106.44;5034826;28;45354;-44
2022/12/03 10:19:43;;;;;;;;;38.25;32.25;;;;;20.26;32.40;101110.00;5035924;28;45513;-43
2022/12/03 10:22:09;;;;;;;;;31.00;29.75;;;;;20.24;32.45;101098.69;5036053;28;45324;-43
2022/12/03 10:24:35;;;;;;;;;30.00;25.75;;;;;20.23;32.73;101091.72;5036377;28;45287;-41
2022/12/03 10:27:19;;;;;;;;;31.75;30.25;;;;;20.22;32.67;101088.25;5036269;28;45517;-40
2022/12/03 10:29:53;;;;;;;;;36.50;28.25;;;;;20.22;32.78;101084.78;5035958;28;45570;-42
2022/12/03 10:32:37;;;;;;;;;31.25;26.75;;;;;20.21;32.51;101093.63;5035756;28;45917;-43
2022/12/03 10:35:09;;;;;;;;;28.25;25.75;;;;;20.20;32.92;101095.38;5035961;28;45314;-46
2022/12/03 10:37:34;;;;;;;;;32.75;30.00;;;;;20.19;32.73;101096.31;5036382;28;45503;-42
2022/12/03 10:40:07;;;;;;;;;25.50;25.00;;;;;20.18;32.88;101089.34;5035615;28;45243;-41
2022/12/03 10:42:38;;;;;;;;;31.00;28.25;;;;;20.18;32.43;101094.59;5035929;28;45790;-40
2022/12/03 10:45:19;;;;;;;;;24.00;20.50;;;;;20.18;32.35;101093.75;5035705;28;45301;-44
2022/12/03 10:48:04;;;;;;;;;23.00;21.50;;;;;20.15;32.30;101084.25;5035881;28;45560;-42
2022/12/03 10:50:30;;;;;;;;;22.50;22.00;;;;;20.15;32.31;101084.25;5035491;28;45729;-41
2022/12/03 10:52:55;;;;;;;;;28.75;23.00;;;;;20.14;32.71;101079.03;5051060;28;45263;-41
2022/12/03 10:55:21;;;;;;;;;24.25;23.00;;;;;20.13;32.92;101078.19;5035592;28;45331;-43
2022/12/03 10:57:49;;;;;;;;;21.75;21.50;;;;;20.12;32.76;101084.38;5035959;28;45386;-41
2022/12/03 11:00:16;;;;;;;;;17.50;16.75;;;;;20.12;32.92;101086.19;5035478;28;46530;-43
2022/12/03 11:02:42;;;;;;;;;20.50;18.50;;;;;20.09;32.38;101071.38;5034000;28;45674;-42
2022/12/03 11:05:14;;;;;;;;;19.00;17.75;;;;;20.09;32.46;101068.75;5035606;28;45309;-45
2022/12/03 11:07:41;;;;;;;;;21.25;19.25;;;;;20.08;32.63;101065.28;5034337;28;45394;-42
2022/12/03 11:10:14;;;;;;;;;23.75;19.00;;;;;20.08;32.58;101064.41;5038572;28;46314;-40
2022/12/03 11:12:39;;;;;;;;;21.00;18.00;;;;;20.06;32.18;101059.22;5039107;28;45314;-41
2022/12/03 11:15:06;;;;;;;;;19.33;17.00;;;;;20.05;32.74;101065.41;5038647;28;45336;-45
2022/12/03 11:17:38;;;;;;;;;20.50;16.25;;;;;20.05;32.35;101062.78;5038821;28;45521;-41
2022/12/03 11:20:08;;;;;;;;;18.75;18.00;;;;;20.04;32.42;101062.88;5038482;28;47698;-43
2022/12/03 11:22:43;;;;;;;;;24.25;17.00;;;;;20.03;32.68;101055.91;5037219;28;45371;-42
2022/12/03 11:25:23;;;;;;;;;19.50;18.50;;;;;20.01;32.25;101050.69;5039034;28;45496;-41
2022/12/03 11:28:10;;;;;;;;;19.50;16.25;;;;;20.00;32.70;101054.28;5038807;28;45231;-45